Time;durP1;ratioP1;P1;durP2;ratioP2;P2;SDS_P1;SDS_P2;PMS_P1;PMS_P2;Temp;Humidity;BMP_temperature;BMP_pressure;BME280_temperature;BME280_humidity;BME280_pressure;Samples;Min_cycle;Max_cycle;Signal;HPM_P1;HPM_P2
2022/06/10 00:01:08;;;;;;;;;;;12.00;99.90;;;;;;5036073;28;19990;-76
2022/06/10 00:03:35;;;;;;;;;;;12.00;99.90;;;;;;5035433;28;19975;-76
2022/06/10 00:06:03;;;;;;;;;;;12.00;99.90;;;;;;5035390;28;19932;-79
2022/06/10 00:08:29;;;;;;;;;;;11.90;99.90;;;;;;5035418;28;19921;-76
2022/06/10 00:10:55;;;;;;;;;;;11.90;99.90;;;;;;5035331;28;19921;-76
2022/06/10 00:13:22;;;;;;;;;;;11.90;99.90;;;;;;5034681;28;20411;-76
2022/06/10 00:15:48;;;;;;;;;;;11.90;99.90;;;;;;5018400;28;19971;-76
2022/06/10 00:18:13;;;;;;;;;;;11.90;99.90;;;;;;5017891;28;20421;-73
2022/06/10 00:20:39;;;;;;;;;;;11.80;99.90;;;;;;5050602;28;19905;-77
2022/06/10 00:23:05;;;;;;;;;;;11.80;99.90;;;;;;5048616;28;19921;-76
2022/06/10 00:25:31;;;;;;;;;;;11.80;99.90;;;;;;5045333;28;19956;-74
2022/06/10 00:27:56;;;;;;;;;;;11.80;99.90;;;;;;5037329;28;19928;-76
2022/06/10 00:30:23;;;;;;;;;;;11.80;99.90;;;;;;5035465;28;19921;-76
2022/06/10 00:32:48;;;;;;;;;;;11.70;99.90;;;;;;5017443;28;19944;-76
2022/06/10 00:35:14;;;;;;;;;;;11.80;99.90;;;;;;5035227;28;19921;-76
2022/06/10 00:37:40;;;;;;;;;;;11.80;99.90;;;;;;5035028;28;19928;-76
2022/06/10 00:40:06;;;;;;;;;;;11.80;99.90;;;;;;5033761;28;20384;-81
2022/06/10 00:42:32;;;;;;;;;;;11.80;99.90;;;;;;5000827;28;19931;-77
2022/06/10 00:44:57;;;;;;;;;;;11.80;99.90;;;;;;5017194;28;19974;-76
2022/06/10 00:47:26;;;;;;;;;;;11.80;99.90;;;;;;5034776;28;19967;-76
2022/06/10 00:49:54;;;;;;;;;;;11.80;99.90;;;;;;5035294;28;19921;-77
2022/06/10 00:52:22;;;;;;;;;;;11.80;99.90;;;;;;5035231;28;19921;-76
2022/06/10 00:54:48;;;;;;;;;;;11.70;99.90;;;;;;5033731;28;20011;-76
2022/06/10 00:57:19;;;;;;;;;;;11.70;99.90;;;;;;5034237;28;20361;-76
2022/06/10 00:59:53;;;;;;;;;;;11.70;99.90;;;;;;5033462;28;19921;-76
2022/06/10 01:02:20;;;;;;;;;;;11.80;99.90;;;;;;5017093;28;19928;-76
2022/06/10 01:04:46;;;;;;;;;;;11.80;99.90;;;;;;5035022;28;19944;-76
2022/06/10 01:07:12;;;;;;;;;;;11.80;99.90;;;;;;5034679;28;19925;-76
2022/06/10 01:09:37;;;;;;;;;;;11.80;99.90;;;;;;5033309;28;20387;-77
2022/06/10 01:12:25;;;;;;;;;;;11.80;99.90;;;;;;5017299;28;19921;-77
2022/06/10 01:14:57;;;;;;;;;;;11.80;99.90;;;;;;5033797;28;19948;-76
2022/06/10 01:17:31;;;;;;;;;;;11.80;99.90;;;;;;5034253;28;19928;-76
2022/06/10 01:20:06;;;;;;;;;;;11.80;99.90;;;;;;5034389;28;20293;-77
2022/06/10 01:22:31;;;;;;;;;;;11.80;99.90;;;;;;5016641;28;19924;-76
2022/06/10 01:24:57;;;;;;;;;;;11.80;99.90;;;;;;5016556;28;20388;-76
2022/06/10 01:27:49;;;;;;;;;;;11.70;99.90;;;;;;5034684;28;20012;-76
2022/06/10 01:30:17;;;;;;;;;;;11.70;99.90;;;;;;5034034;28;20345;-77
2022/06/10 01:33:01;;;;;;;;;;;11.70;99.90;;;;;;5034386;28;19921;-77
2022/06/10 01:35:30;;;;;;;;;;;11.70;99.90;;;;;;5032867;28;20361;-76
2022/06/10 01:37:57;;;;;;;;;;;11.80;99.90;;;;;;5034069;28;19975;-76
2022/06/10 01:40:26;;;;;;;;;;;11.80;99.90;;;;;;5032783;28;19921;-76
2022/06/10 01:42:55;;;;;;;;;;;11.80;99.90;;;;;;5032726;28;20369;-77
2022/06/10 01:45:29;;;;;;;;;;;11.80;99.90;;;;;;5032798;28;20019;-76
2022/06/10 01:47:56;;;;;;;;;;;11.80;99.90;;;;;;5033208;28;19921;-76
2022/06/10 01:50:30;;;;;;;;;;;11.80;99.90;;;;;;5019482;28;19932;-76
2022/06/10 01:53:12;;;;;;;;;;;11.80;99.90;;;;;;5037400;28;19987;-76
2022/06/10 01:56:13;;;;;;;;;;;11.90;99.90;;;;;;5037905;28;19921;-76
2022/06/10 01:58:49;;;;;;;;;;;11.80;99.90;;;;;;4976787;28;19989;-76
2022/06/10 02:01:16;;;;;;;;;;;11.90;99.90;;;;;;5012985;28;20337;-75
2022/06/10 02:03:44;;;;;;;;;;;11.90;99.90;;;;;;5036532;28;19928;-76
2022/06/10 02:06:11;;;;;;;;;;;11.80;99.90;;;;;;5036944;28;19927;-76
2022/06/10 02:08:38;;;;;;;;;;;11.80;99.90;;;;;;5043045;28;19921;-75
2022/06/10 02:11:08;;;;;;;;;;;11.90;99.90;;;;;;5043371;28;19959;-77
2022/06/10 02:13:49;;;;;;;;;;;11.90;99.90;;;;;;5040804;28;20365;-77
2022/06/10 02:16:16;;;;;;;;;;;11.90;99.90;;;;;;5053594;28;19935;-77
2022/06/10 02:18:43;;;;;;;;;;;11.90;99.90;;;;;;5061847;28;19963;-74
2022/06/10 02:21:21;;;;;;;;;;;11.90;99.90;;;;;;5061762;28;19912;-80
2022/06/10 02:23:48;;;;;;;;;;;11.90;99.90;;;;;;5062163;28;19951;-76
2022/06/10 02:26:13;;;;;;;;;;;11.90;99.90;;;;;;5054302;28;20316;-77
2022/06/10 02:28:40;;;;;;;;;;;11.90;99.90;;;;;;5036698;28;19921;-77
2022/06/10 02:31:08;;;;;;;;;;;11.90;99.90;;;;;;5019603;28;19924;-77
2022/06/10 02:33:34;;;;;;;;;;;11.90;99.90;;;;;;5037323;28;19925;-77
2022/06/10 02:36:06;;;;;;;;;;;11.90;99.90;;;;;;5036143;28;19921;-77
2022/06/10 02:38:34;;;;;;;;;;;11.90;99.90;;;;;;5036265;28;19948;-77
2022/06/10 02:41:02;;;;;;;;;;;11.90;99.90;;;;;;5019500;28;19925;-77
2022/06/10 02:43:48;;;;;;;;;;;11.80;99.90;;;;;;5037710;28;19928;-77
2022/06/10 02:46:16;;;;;;;;;;;11.80;99.90;;;;;;5019985;28;19921;-77
2022/06/10 02:49:02;;;;;;;;;;;11.80;99.90;;;;;;5035929;28;19921;-77
2022/06/10 02:51:28;;;;;;;;;;;11.80;99.90;;;;;;5036977;28;19928;-77
2022/06/10 02:53:54;;;;;;;;;;;11.80;99.90;;;;;;5037193;28;20396;-77
2022/06/10 02:56:20;;;;;;;;;;;11.80;99.90;;;;;;5035729;28;19971;-77
2022/06/10 03:01:30;;;;;;;;;;;11.90;99.90;;;;;;5036320;28;20273;-77
2022/06/10 03:04:05;;;;;;;;;;;11.80;99.90;;;;;;5036673;28;19925;-77
2022/06/10 03:06:44;;;;;;;;;;;11.70;99.90;;;;;;5002949;28;19988;-77
2022/06/10 03:09:11;;;;;;;;;;;11.70;99.90;;;;;;5020156;28;19921;-77
2022/06/10 03:11:40;;;;;;;;;;;11.70;99.90;;;;;;5035955;28;19921;-77
2022/06/10 03:14:12;;;;;;;;;;;11.70;99.90;;;;;;5035399;28;20019;-77
2022/06/10 03:16:50;;;;;;;;;;;11.70;99.90;;;;;;5036404;28;19960;-77
2022/06/10 03:19:31;;;;;;;;;;;11.70;99.90;;;;;;5037064;28;19924;-77
2022/06/10 03:22:11;;;;;;;;;;;11.70;99.90;;;;;;5035370;28;19928;-76
2022/06/10 03:24:55;;;;;;;;;;;11.60;99.90;;;;;;5035121;28;19920;-77
2022/06/10 03:27:23;;;;;;;;;;;11.70;99.90;;;;;;5036397;28;19929;-77
2022/06/10 03:29:53;;;;;;;;;;;11.70;99.90;;;;;;5036199;28;19921;-77
2022/06/10 03:32:22;;;;;;;;;;;11.70;99.90;;;;;;5036646;28;19921;-77
2022/06/10 03:34:49;;;;;;;;;;;11.70;99.90;;;;;;5035949;28;19928;-77
2022/06/10 03:37:17;;;;;;;;;;;11.60;99.90;;;;;;5002411;28;19921;-76
2022/06/10 03:39:48;;;;;;;;;;;11.60;99.90;;;;;;5036084;28;19932;-77
2022/06/10 03:42:15;;;;;;;;;;;11.70;99.90;;;;;;5035809;28;19987;-77
2022/06/10 03:44:40;;;;;;;;;;;11.70;99.90;;;;;;5034927;28;19921;-77
2022/06/10 03:47:06;;;;;;;;;;;11.70;99.90;;;;;;5018664;28;20339;-77
2022/06/10 03:49:34;;;;;;;;;;;11.70;99.90;;;;;;5036474;28;19921;-76
2022/06/10 03:51:59;;;;;;;;;;;11.80;99.90;;;;;;5035910;28;20339;-77
2022/06/10 03:54:25;;;;;;;;;;;11.80;99.90;;;;;;5034724;28;19967;-77
2022/06/10 03:56:52;;;;;;;;;;;11.70;99.90;;;;;;5036812;28;19925;-77
2022/06/10 03:59:18;;;;;;;;;;;11.80;99.90;;;;;;5035559;28;19921;-76
2022/06/10 04:01:44;;;;;;;;;;;11.80;99.90;;;;;;5042798;28;19921;-76
2022/06/10 04:04:09;;;;;;;;;;;11.80;99.90;;;;;;5039268;28;19972;-76
2022/06/10 04:06:35;;;;;;;;;;;11.80;99.90;;;;;;5039212;28;19921;-76
2022/06/10 04:09:00;;;;;;;;;;;11.80;99.90;;;;;;5059392;28;19924;-75
2022/06/10 04:11:26;;;;;;;;;;;11.80;99.90;;;;;;5059681;28;19905;-76
2022/06/10 04:13:51;;;;;;;;;;;11.80;99.90;;;;;;5056484;28;19905;-76
2022/06/10 04:16:17;;;;;;;;;;;11.90;99.90;;;;;;5038421;28;19924;-75
2022/06/10 04:18:42;;;;;;;;;;;11.90;99.90;;;;;;5018076;28;20012;-76
2022/06/10 04:21:08;;;;;;;;;;;11.90;99.90;;;;;;5036313;28;19921;-76
2022/06/10 04:23:33;;;;;;;;;;;11.90;99.90;;;;;;5035879;28;19921;-77
2022/06/10 04:25:59;;;;;;;;;;;12.00;99.90;;;;;;5017757;28;19921;-76
2022/06/10 04:28:25;;;;;;;;;;;12.00;99.90;;;;;;5035200;28;19928;-76
2022/06/10 04:30:51;;;;;;;;;;;12.10;99.90;;;;;;5035866;28;20296;-76
2022/06/10 04:33:17;;;;;;;;;;;12.10;99.90;;;;;;5034052;28;19921;-77
2022/06/10 04:35:43;;;;;;;;;;;12.10;99.90;;;;;;5035279;28;19925;-77
2022/06/10 04:38:09;;;;;;;;;;;12.10;99.90;;;;;;5017317;28;20316;-76
2022/06/10 04:40:35;;;;;;;;;;;12.20;99.90;;;;;;5034437;28;20308;-76
2022/06/10 04:43:00;;;;;;;;;;;12.30;99.90;;;;;;5034880;28;19925;-76
2022/06/10 04:45:31;;;;;;;;;;;12.40;99.90;;;;;;5033716;28;19921;-75
2022/06/10 04:47:58;;;;;;;;;;;12.50;99.90;;;;;;5035370;28;19921;-77
2022/06/10 04:50:24;;;;;;;;;;;12.70;99.90;;;;;;5034722;28;19921;-78
2022/06/10 04:52:50;;;;;;;;;;;12.80;99.90;;;;;;5017348;28;19990;-77
2022/06/10 04:55:15;;;;;;;;;;;12.90;99.90;;;;;;5035223;28;19928;-77
2022/06/10 04:57:41;;;;;;;;;;;13.10;99.90;;;;;;5035222;28;19928;-78
2022/06/10 05:00:08;;;;;;;;;;;13.20;99.90;;;;;;5035188;28;19921;-78
2022/06/10 05:02:34;;;;;;;;;;;13.30;99.90;;;;;;5034839;28;19929;-78
2022/06/10 05:04:59;;;;;;;;;;;13.40;99.90;;;;;;5034663;28;19921;-77
2022/06/10 05:07:25;;;;;;;;;;;13.50;99.90;;;;;;5033425;28;20289;-77
2022/06/10 05:09:50;;;;;;;;;;;13.60;99.90;;;;;;5034772;28;20249;-76
2022/06/10 05:12:16;;;;;;;;;;;13.60;99.90;;;;;;5034394;28;19921;-76
2022/06/10 05:14:41;;;;;;;;;;;13.70;99.90;;;;;;5034503;28;19921;-82
2022/06/10 05:17:07;;;;;;;;;;;13.80;99.90;;;;;;5017321;28;19943;-77
2022/06/10 05:19:32;;;;;;;;;;;13.80;99.90;;;;;;5033149;28;20039;-77
2022/06/10 05:21:58;;;;;;;;;;;13.80;99.90;;;;;;5001005;28;19921;-77
2022/06/10 05:24:24;;;;;;;;;;;13.90;99.90;;;;;;5015762;28;19920;-77
2022/06/10 05:26:49;;;;;;;;;;;13.90;99.90;;;;;;5016664;28;20008;-83
2022/06/10 05:29:15;;;;;;;;;;;13.90;99.90;;;;;;5017354;28;19921;-78
2022/06/10 05:31:40;;;;;;;;;;;14.00;99.90;;;;;;5032677;28;19924;-78
2022/06/10 05:36:50;;;;;;;;;;;14.10;99.90;;;;;;5034158;28;19921;-78
2022/06/10 05:39:15;;;;;;;;;;;14.10;99.90;;;;;;5034747;28;19921;-77
2022/06/10 05:44:26;;;;;;;;;;;14.20;99.90;;;;;;5035135;28;19975;-77
2022/06/10 05:46:54;;;;;;;;;;;14.20;99.90;;;;;;5034208;28;19924;-77
2022/06/10 05:49:20;;;;;;;;;;;14.20;99.90;;;;;;5025021;28;20260;-77
2022/06/10 05:51:45;;;;;;;;;;;14.30;99.90;;;;;;5042546;28;19991;-78
2022/06/10 05:54:11;;;;;;;;;;;14.40;99.90;;;;;;5040014;28;19921;-77
2022/06/10 05:56:36;;;;;;;;;;;14.40;99.90;;;;;;5034163;28;19921;-79
2022/06/10 05:59:02;;;;;;;;;;;14.50;99.90;;;;;;5058527;28;19905;-82
2022/06/10 06:01:28;;;;;;;;;;;14.60;99.90;;;;;;5058521;28;19920;-78
2022/06/10 06:03:53;;;;;;;;;;;14.60;99.90;;;;;;5049639;28;20406;-78
2022/06/10 06:06:19;;;;;;;;;;;14.70;99.90;;;;;;5034360;28;20373;-78
2022/06/10 06:08:46;;;;;;;;;;;14.70;99.90;;;;;;5033406;28;19921;-78
2022/06/10 06:11:12;;;;;;;;;;;14.80;99.90;;;;;;5016731;28;19928;-78
2022/06/10 06:13:37;;;;;;;;;;;14.80;99.90;;;;;;5017668;28;19921;-78
2022/06/10 06:16:03;;;;;;;;;;;14.80;99.90;;;;;;5035284;28;20011;-78
2022/06/10 06:18:29;;;;;;;;;;;14.80;99.90;;;;;;5033721;28;19928;-78
2022/06/10 06:20:54;;;;;;;;;;;14.70;99.90;;;;;;5016770;28;20288;-77
2022/06/10 06:23:20;;;;;;;;;;;14.70;99.90;;;;;;5034095;28;20406;-77
2022/06/10 06:25:45;;;;;;;;;;;14.70;99.90;;;;;;5034588;28;19928;-78
2022/06/10 06:28:11;;;;;;;;;;;14.70;99.90;;;;;;5035076;28;19979;-78
2022/06/10 06:30:37;;;;;;;;;;;14.70;99.90;;;;;;5016296;28;19967;-78
2022/06/10 06:33:03;;;;;;;;;;;14.70;99.90;;;;;;5016384;28;19921;-78
2022/06/10 06:35:29;;;;;;;;;;;14.70;99.90;;;;;;5035887;28;19968;-77
2022/06/10 06:37:55;;;;;;;;;;;14.70;99.90;;;;;;5037953;28;19928;-78
2022/06/10 06:40:21;;;;;;;;;;;14.80;99.90;;;;;;5037703;28;19925;-78
2022/06/10 06:42:46;;;;;;;;;;;14.90;99.90;;;;;;5037620;28;19927;-76
2022/06/10 06:45:12;;;;;;;;;;;15.00;99.90;;;;;;5020113;28;19943;-78
2022/06/10 06:47:38;;;;;;;;;;;15.20;99.90;;;;;;5036320;28;19928;-77
2022/06/10 06:50:03;;;;;;;;;;;15.30;99.90;;;;;;5020414;28;19921;-77
2022/06/10 06:52:29;;;;;;;;;;;15.50;99.90;;;;;;5037278;28;19968;-77
2022/06/10 06:54:55;;;;;;;;;;;15.60;99.90;;;;;;5019792;28;19925;-78
2022/06/10 06:57:20;;;;;;;;;;;15.70;99.90;;;;;;5020265;28;19925;-78
2022/06/10 06:59:46;;;;;;;;;;;15.80;99.90;;;;;;5037688;28;19921;-77
2022/06/10 07:02:12;;;;;;;;;;;15.80;99.90;;;;;;5035958;28;20003;-77
2022/06/10 07:04:37;;;;;;;;;;;15.80;99.90;;;;;;5037799;28;20342;-78
2022/06/10 07:07:03;;;;;;;;;;;15.80;99.90;;;;;;5037178;28;19960;-77
2022/06/10 07:09:29;;;;;;;;;;;15.80;99.90;;;;;;5037467;28;20423;-78
2022/06/10 07:11:55;;;;;;;;;;;15.80;99.90;;;;;;5036929;28;19967;-77
2022/06/10 07:14:22;;;;;;;;;;;15.90;99.90;;;;;;5019419;28;20007;-76
2022/06/10 07:16:51;;;;;;;;;;;15.90;99.90;;;;;;5036006;28;20013;-78
2022/06/10 07:19:17;;;;;;;;;;;16.00;99.90;;;;;;5036811;28;19924;-78
2022/06/10 07:21:42;;;;;;;;;;;16.00;99.90;;;;;;5036680;28;19932;-78
2022/06/10 07:24:08;;;;;;;;;;;16.00;99.90;;;;;;5036523;28;20011;-78
2022/06/10 07:26:34;;;;;;;;;;;16.10;99.90;;;;;;5035476;28;19972;-78
2022/06/10 07:29:00;;;;;;;;;;;16.10;99.90;;;;;;5019225;28;19921;-78
2022/06/10 07:31:25;;;;;;;;;;;16.20;99.90;;;;;;5037810;28;19928;-78
2022/06/10 07:33:51;;;;;;;;;;;16.20;99.90;;;;;;5036732;28;19921;-77
2022/06/10 07:36:16;;;;;;;;;;;16.30;99.90;;;;;;5042726;28;19921;-78
2022/06/10 07:38:42;;;;;;;;;;;16.30;99.90;;;;;;5058389;28;19925;-77
2022/06/10 07:43:52;;;;;;;;;;;16.40;99.90;;;;;;5053790;28;19905;-77
2022/06/10 07:46:18;;;;;;;;;;;16.40;99.90;;;;;;5042932;28;19965;-81
2022/06/10 07:48:44;;;;;;;;;;;16.50;99.90;;;;;;5060300;28;19905;-78
2022/06/10 07:51:10;;;;;;;;;;;16.50;99.90;;;;;;5060257;28;19917;-80
2022/06/10 07:53:35;;;;;;;;;;;16.60;99.90;;;;;;5057768;28;19920;-76
2022/06/10 07:56:01;;;;;;;;;;;16.60;99.90;;;;;;5036987;28;19921;-77
2022/06/10 07:58:28;;;;;;;;;;;16.60;99.90;;;;;;5037240;28;19921;-76
2022/06/10 08:00:54;;;;;;;;;;;16.60;99.90;;;;;;5038411;28;19928;-76
2022/06/10 08:03:19;;;;;;;;;;;16.70;99.90;;;;;;5036371;28;20464;-77
2022/06/10 08:05:45;;;;;;;;;;;16.70;99.90;;;;;;5035752;28;20270;-77
2022/06/10 08:08:14;;;;;;;;;;;16.70;99.90;;;;;;5035732;28;19921;-77
2022/06/10 08:10:40;;;;;;;;;;;16.80;99.90;;;;;;5034424;28;19925;-78
2022/06/10 08:13:05;;;;;;;;;;;16.90;99.90;;;;;;5035678;28;19921;-77
2022/06/10 08:15:31;;;;;;;;;;;17.00;99.90;;;;;;5035466;28;20419;-77
2022/06/10 08:17:57;;;;;;;;;;;17.10;99.90;;;;;;5034487;28;19998;-77
2022/06/10 08:23:12;;;;;;;;;;;17.20;99.90;;;;;;5036265;28;20292;-77
2022/06/10 08:25:37;;;;;;;;;;;17.20;99.90;;;;;;5035300;28;19921;-77
2022/06/10 08:28:03;;;;;;;;;;;17.20;99.90;;;;;;5034259;28;19928;-77
2022/06/10 08:30:29;;;;;;;;;;;17.10;99.90;;;;;;5036028;28;19921;-77
2022/06/10 08:32:54;;;;;;;;;;;17.00;99.90;;;;;;5036295;28;19921;-78
2022/06/10 08:35:20;;;;;;;;;;;16.90;99.90;;;;;;5001695;28;19925;-78
2022/06/10 08:37:45;;;;;;;;;;;16.90;99.90;;;;;;5033953;28;20369;-77
2022/06/10 08:40:17;;;;;;;;;;;16.90;99.90;;;;;;5017436;28;19921;-77
2022/06/10 08:42:42;;;;;;;;;;;16.90;99.90;;;;;;5033849;28;19975;-78
2022/06/10 08:45:17;;;;;;;;;;;16.90;99.90;;;;;;5034591;28;19927;-78
2022/06/10 08:47:46;;;;;;;;;;;17.00;99.90;;;;;;5035242;28;19995;-78
2022/06/10 08:50:16;;;;;;;;;;;17.00;99.90;;;;;;5002245;28;19959;-78
2022/06/10 08:52:57;;;;;;;;;;;17.00;99.90;;;;;;5034192;28;19971;-78
2022/06/10 08:55:29;;;;;;;;;;;17.10;99.90;;;;;;5034382;28;19967;-80
2022/06/10 08:57:55;;;;;;;;;;;17.10;99.90;;;;;;5034726;28;19924;-78
2022/06/10 09:00:23;;;;;;;;;;;17.10;99.90;;;;;;5033650;28;19975;-77
2022/06/10 09:03:07;;;;;;;;;;;17.10;99.90;;;;;;5017307;28;19921;-77
2022/06/10 09:05:37;;;;;;;;;;;17.10;99.90;;;;;;5034501;28;19921;-77
2022/06/10 09:08:04;;;;;;;;;;;17.10;99.90;;;;;;5033453;28;20285;-78
2022/06/10 09:10:32;;;;;;;;;;;17.20;99.90;;;;;;5034562;28;19932;-76
2022/06/10 09:13:06;;;;;;;;;;;17.20;99.90;;;;;;5034368;28;20008;-76
2022/06/10 09:15:32;;;;;;;;;;;17.30;99.90;;;;;;5033313;28;19975;-77
2022/06/10 09:18:00;;;;;;;;;;;17.30;99.90;;;;;;5033358;28;19921;-77
2022/06/10 09:20:46;;;;;;;;;;;17.40;99.90;;;;;;5016850;28;20334;-77
2022/06/10 09:23:15;;;;;;;;;;;17.40;99.90;;;;;;5033955;28;19921;-77
2022/06/10 09:25:42;;;;;;;;;;;17.40;99.90;;;;;;5019903;28;19921;-78
2022/06/10 09:28:07;;;;;;;;;;;17.40;99.90;;;;;;5035464;28;19921;-78
2022/06/10 09:30:36;;;;;;;;;;;17.40;99.90;;;;;;5028485;28;20270;-77
2022/06/10 09:33:04;;;;;;;;;;;17.40;99.90;;;;;;5026382;28;19960;-79
2022/06/10 09:35:41;;;;;;;;;;;17.40;99.90;;;;;;5058216;28;19924;-81
2022/06/10 09:38:06;;;;;;;;;;;17.50;99.90;;;;;;5058141;28;19912;-79
2022/06/10 09:40:37;;;;;;;;;;;17.50;99.90;;;;;;5041362;28;19905;-81
2022/06/10 09:43:29;;;;;;;;;;;17.50;99.90;;;;;;5050790;28;19921;-78
2022/06/10 09:45:55;;;;;;;;;;;17.50;99.90;;;;;;5031384;28;20017;-77
2022/06/10 09:48:21;;;;;;;;;;;17.60;99.90;;;;;;5034969;28;19972;-77
2022/06/10 09:51:00;;;;;;;;;;;17.70;99.90;;;;;;5034212;28;19921;-77
2022/06/10 09:53:46;;;;;;;;;;;17.80;99.90;;;;;;5033425;28;19935;-77
2022/06/10 09:56:30;;;;;;;;;;;17.90;99.90;;;;;;5033825;28;20349;-77
2022/06/10 09:59:00;;;;;;;;;;;18.00;99.90;;;;;;5034846;28;20257;-77
2022/06/10 10:01:36;;;;;;;;;;;18.10;99.90;;;;;;5032939;28;19928;-77
2022/06/10 10:04:02;;;;;;;;;;;18.10;99.90;;;;;;5032909;28;19925;-78
2022/06/10 10:06:39;;;;;;;;;;;18.20;99.90;;;;;;5034748;28;19943;-77
2022/06/10 10:09:28;;;;;;;;;;;18.20;99.90;;;;;;5034049;28;19921;-77
2022/06/10 10:12:08;;;;;;;;;;;18.30;99.90;;;;;;5029480;28;19921;-77
2022/06/10 10:14:45;;;;;;;;;;;18.30;99.90;;;;;;5037823;28;19967;-78
2022/06/10 10:17:43;;;;;;;;;;;18.30;99.90;;;;;;5036566;28;19928;-77
2022/06/10 10:20:24;;;;;;;;;;;18.40;99.90;;;;;;5004420;28;19982;-77
2022/06/10 10:22:49;;;;;;;;;;;18.50;99.90;;;;;;5037922;28;19979;-77
2022/06/10 10:25:16;;;;;;;;;;;18.50;99.90;;;;;;5021116;28;19964;-78
2022/06/10 10:27:42;;;;;;;;;;;18.40;99.90;;;;;;5038025;28;20048;-76
2022/06/10 10:30:22;;;;;;;;;;;18.40;99.90;;;;;;5037867;28;20361;-78
2022/06/10 10:33:14;;;;;;;;;;;18.30;99.90;;;;;;5037761;28;19921;-78
2022/06/10 10:35:48;;;;;;;;;;;18.30;99.90;;;;;;5034262;28;20020;-80
2022/06/10 10:38:29;;;;;;;;;;;18.30;99.90;;;;;;5036636;28;19921;-78
2022/06/10 10:40:54;;;;;;;;;;;18.20;99.90;;;;;;5037510;28;19920;-77
2022/06/10 10:43:24;;;;;;;;;;;18.30;99.90;;;;;;5019850;28;20427;-77
2022/06/10 10:45:51;;;;;;;;;;;18.30;99.90;;;;;;5037875;28;20020;-78
2022/06/10 10:48:18;;;;;;;;;;;18.40;99.90;;;;;;5037542;28;19975;-78
2022/06/10 10:50:53;;;;;;;;;;;18.50;99.90;;;;;;5037723;28;19921;-78
2022/06/10 10:53:24;;;;;;;;;;;18.60;99.90;;;;;;5037335;28;19925;-77
2022/06/10 10:55:51;;;;;;;;;;;18.60;99.90;;;;;;5037093;28;19980;-77
2022/06/10 10:58:18;;;;;;;;;;;18.60;99.90;;;;;;5036969;28;19921;-77
2022/06/10 11:00:44;;;;;;;;;;;18.60;99.90;;;;;;5037105;28;19921;-82
2022/06/10 11:03:22;;;;;;;;;;;18.60;99.90;;;;;;5037271;28;19925;-76
2022/06/10 11:05:48;;;;;;;;;;;18.70;99.90;;;;;;5037463;28;20280;-76
2022/06/10 11:08:14;;;;;;;;;;;18.80;99.90;;;;;;5036681;28;20362;-77
2022/06/10 11:10:48;;;;;;;;;;;18.90;99.90;;;;;;5037085;28;19924;-78
2022/06/10 11:13:14;;;;;;;;;;;19.00;99.90;;;;;;5037502;28;19928;-78
2022/06/10 11:15:40;;;;;;;;;;;19.00;99.90;;;;;;5035550;28;20266;-78
2022/06/10 11:18:12;;;;;;;;;;;19.00;99.90;;;;;;5039096;28;19981;-78
2022/06/10 11:20:37;;;;;;;;;;;19.00;99.90;;;;;;5040093;28;20250;-77
2022/06/10 11:23:15;;;;;;;;;;;19.20;99.90;;;;;;5041162;28;19928;-78
2022/06/10 11:25:40;;;;;;;;;;;19.40;99.90;;;;;;5043889;28;19949;-75
2022/06/10 11:28:17;;;;;;;;;;;19.50;99.90;;;;;;5060583;28;19936;-78
2022/06/10 11:30:43;;;;;;;;;;;19.70;99.90;;;;;;5060715;28;19937;-77
2022/06/10 11:33:26;;;;;;;;;;;19.80;99.90;;;;;;5060341;28;19975;-76
2022/06/10 11:36:03;;;;;;;;;;;19.90;99.90;;;;;;5037971;28;19921;-78
2022/06/10 11:38:29;;;;;;;;;;;19.90;99.90;;;;;;5037229;28;20071;-78
2022/06/10 11:40:55;;;;;;;;;;;19.90;99.90;;;;;;5018936;28;19983;-78
2022/06/10 11:43:28;;;;;;;;;;;19.90;99.90;;;;;;5037292;28;19921;-78
2022/06/10 11:45:58;;;;;;;;;;;20.00;99.90;;;;;;5034982;28;19921;-79
2022/06/10 11:48:29;;;;;;;;;;;20.20;99.90;;;;;;5035005;28;20285;-80
2022/06/10 11:51:13;;;;;;;;;;;20.40;99.90;;;;;;5035552;28;20018;-79
2022/06/10 11:53:44;;;;;;;;;;;20.40;99.90;;;;;;5019097;28;19920;-79
2022/06/10 12:01:47;;;;;;;;;;;20.40;99.90;;;;;;5036405;28;19967;-79
2022/06/10 12:04:17;;;;;;;;;;;20.40;99.90;;;;;;5018859;28;19921;-79
2022/06/10 12:06:47;;;;;;;;;;;20.50;99.90;;;;;;5034624;28;19928;-79
2022/06/10 12:09:15;;;;;;;;;;;20.50;99.90;;;;;;5034412;28;19921;-79
2022/06/10 12:11:40;;;;;;;;;;;20.50;99.90;;;;;;5035651;28;19925;-79
2022/06/10 12:14:13;;;;;;;;;;;20.50;99.90;;;;;;5035625;28;19924;-79
2022/06/10 12:16:39;;;;;;;;;;;20.40;99.90;;;;;;5034687;28;19921;-78
2022/06/10 12:19:06;;;;;;;;;;;20.40;99.90;;;;;;5017995;28;19921;-78
2022/06/10 12:21:32;;;;;;;;;;;20.30;99.90;;;;;;5034320;28;19928;-78
2022/06/10 12:23:58;;;;;;;;;;;20.30;99.90;;;;;;5034049;28;19921;-82
2022/06/10 12:26:37;;;;;;;;;;;20.40;99.90;;;;;;5034323;28;19928;-78
2022/06/10 12:29:12;;;;;;;;;;;20.40;99.90;;;;;;5035170;28;19921;-78
2022/06/10 12:31:48;;;;;;;;;;;20.50;99.90;;;;;;5035402;28;19921;-78
2022/06/10 12:34:14;;;;;;;;;;;20.50;99.90;;;;;;5017183;28;20010;-78
2022/06/10 12:36:40;;;;;;;;;;;20.60;99.90;;;;;;5035226;28;19929;-78
2022/06/10 12:39:08;;;;;;;;;;;20.70;99.90;;;;;;5034178;28;19995;-78
2022/06/10 12:41:37;;;;;;;;;;;20.80;99.60;;;;;;5018834;28;19972;-78
2022/06/10 12:44:04;;;;;;;;;;;20.80;99.60;;;;;;5034411;28;19972;-78
2022/06/10 12:46:33;;;;;;;;;;;20.90;98.80;;;;;;5034138;28;20053;-78
2022/06/10 12:49:04;;;;;;;;;;;20.80;98.60;;;;;;5035249;28;20024;-78
2022/06/10 12:51:40;;;;;;;;;;;20.70;98.50;;;;;;5033849;28;19937;-78
2022/06/10 12:54:24;;;;;;;;;;;20.70;99.20;;;;;;5017539;28;19921;-78
2022/06/10 12:56:50;;;;;;;;;;;20.70;99.30;;;;;;5034525;28;20286;-78
2022/06/10 12:59:23;;;;;;;;;;;20.70;99.30;;;;;;5033686;28;20007;-78
2022/06/10 13:01:48;;;;;;;;;;;20.60;98.70;;;;;;5034918;28;19921;-78
2022/06/10 13:04:15;;;;;;;;;;;20.60;98.60;;;;;;5033535;28;19921;-78
2022/06/10 13:06:44;;;;;;;;;;;20.60;98.40;;;;;;5034440;28;19921;-79
2022/06/10 13:09:09;;;;;;;;;;;20.50;98.30;;;;;;5034630;28;19975;-78
2022/06/10 13:11:39;;;;;;;;;;;20.60;98.70;;;;;;5017795;28;19960;-78
2022/06/10 13:14:25;;;;;;;;;;;20.60;99.70;;;;;;5034937;28;19921;-79
2022/06/10 13:17:00;;;;;;;;;;;20.70;98.80;;;;;;5008011;28;19928;-79
2022/06/10 13:19:25;;;;;;;;;;;20.80;98.00;;;;;;5034799;28;19921;-78
2022/06/10 13:21:51;;;;;;;;;;;20.90;98.30;;;;;;5034556;28;19997;-78
2022/06/10 13:24:16;;;;;;;;;;;21.00;98.40;;;;;;5049262;28;19921;-76
2022/06/10 13:26:42;;;;;;;;;;;21.20;98.30;;;;;;5053650;28;20048;-73
2022/06/10 13:29:15;;;;;;;;;;;21.20;97.60;;;;;;5035328;28;19928;-73
2022/06/10 13:31:47;;;;;;;;;;;21.20;97.40;;;;;;5018513;28;19964;-75
2022/06/10 13:34:37;;;;;;;;;;;21.10;97.30;;;;;;5044324;28;19921;-78
2022/06/10 13:37:13;;;;;;;;;;;21.00;97.10;;;;;;5018010;28;20019;-78
2022/06/10 13:39:39;;;;;;;;;;;20.90;97.20;;;;;;5033409;28;19921;-78
2022/06/10 13:42:05;;;;;;;;;;;20.90;97.70;;;;;;5033596;28;19921;-78
2022/06/10 13:44:40;;;;;;;;;;;20.90;97.10;;;;;;5016500;28;19921;-78
2022/06/10 13:47:20;;;;;;;;;;;20.80;97.20;;;;;;5033045;28;20281;-79
2022/06/10 13:52:36;;;;;;;;;;;20.70;96.80;;;;;;5034157;28;19944;-78
2022/06/10 13:55:19;;;;;;;;;;;20.70;98.10;;;;;;5034515;28;19921;-79
2022/06/10 13:57:45;;;;;;;;;;;20.70;98.00;;;;;;5034388;28;20031;-79
2022/06/10 14:00:19;;;;;;;;;;;20.80;98.00;;;;;;5034049;28;19921;-78
2022/06/10 14:02:45;;;;;;;;;;;20.80;98.00;;;;;;5034503;28;19928;-78
2022/06/10 14:05:13;;;;;;;;;;;20.80;97.40;;;;;;5032823;28;19921;-78
2022/06/10 14:07:41;;;;;;;;;;;20.80;97.10;;;;;;5032873;28;19946;-78
2022/06/10 14:10:26;;;;;;;;;;;20.80;96.60;;;;;;5017124;28;20357;-79
2022/06/10 14:12:59;;;;;;;;;;;20.80;96.90;;;;;;5034068;28;19921;-78
2022/06/10 14:15:27;;;;;;;;;;;20.90;96.70;;;;;;5033761;28;19972;-78
2022/06/10 14:17:53;;;;;;;;;;;21.00;95.60;;;;;;5032889;28;19930;-78
2022/06/10 14:20:19;;;;;;;;;;;21.00;96.50;;;;;;5033888;28;19967;-78
2022/06/10 14:22:46;;;;;;;;;;;21.00;95.70;;;;;;5032733;28;20281;-79
2022/06/10 14:25:14;;;;;;;;;;;21.00;95.20;;;;;;5033676;28;20018;-79
2022/06/10 14:27:47;;;;;;;;;;;21.00;95.10;;;;;;5016314;28;19931;-78
2022/06/10 14:30:22;;;;;;;;;;;21.00;95.20;;;;;;5032247;28;20372;-79
2022/06/10 14:32:57;;;;;;;;;;;20.90;94.50;;;;;;5032590;28;19921;-78
2022/06/10 14:35:38;;;;;;;;;;;20.90;95.50;;;;;;5033918;28;20011;-78
2022/06/10 14:38:04;;;;;;;;;;;21.00;95.10;;;;;;5032755;28;19975;-79
2022/06/10 14:40:29;;;;;;;;;;;21.10;95.00;;;;;;5016363;28;19929;-79
2022/06/10 14:43:00;;;;;;;;;;;21.10;94.80;;;;;;5034674;28;19928;-78
2022/06/10 14:45:27;;;;;;;;;;;21.10;95.30;;;;;;5034329;28;20269;-78
2022/06/10 14:48:04;;;;;;;;;;;21.10;95.00;;;;;;5033899;28;20349;-79
2022/06/10 14:50:30;;;;;;;;;;;21.10;94.70;;;;;;5034450;28;20071;-79